sensor_id;sensor_type;location;lat;lon;timestamp;temperature;humidity
10980;DHT22;5543;51.734;8.744;2023-05-07T00:01:02;13.70;99.90
10980;DHT22;5543;51.734;8.744;2023-05-07T00:03:32;13.70;99.90
10980;DHT22;5543;51.734;8.744;2023-05-07T00:06:01;13.70;99.90
10980;DHT22;5543;51.734;8.744;2023-05-07T00:08:29;13.70;99.90
10980;DHT22;5543;51.734;8.744;2023-05-07T00:10:57;13.70;99.90
10980;DHT22;5543;51.734;8.744;2023-05-07T00:13:26;13.70;99.90
10980;DHT22;5543;51.734;8.744;2023-05-07T00:15:57;13.80;99.90
10980;DHT22;5543;51.734;8.744;2023-05-07T00:18:25;13.70;99.90
10980;DHT22;5543;51.734;8.744;2023-05-07T00:20:54;13.80;99.90
10980;DHT22;5543;51.734;8.744;2023-05-07T00:23:23;13.80;99.90
10980;DHT22;5543;51.734;8.744;2023-05-07T00:25:51;13.80;99.90
10980;DHT22;5543;51.734;8.744;2023-05-07T00:28:19;13.80;99.90
10980;DHT22;5543;51.734;8.744;2023-05-07T00:30:48;13.80;99.90
10980;DHT22;5543;51.734;8.744;2023-05-07T00:33:16;13.80;99.90
10980;DHT22;5543;51.734;8.744;2023-05-07T00:35:44;13.80;99.90
10980;DHT22;5543;51.734;8.744;2023-05-07T00:38:12;13.80;99.90
10980;DHT22;5543;51.734;8.744;2023-05-07T00:40:40;13.80;99.90
10980;DHT22;5543;51.734;8.744;2023-05-07T00:43:08;13.80;99.90
10980;DHT22;5543;51.734;8.744;2023-05-07T00:45:37;13.80;99.90
10980;DHT22;5543;51.734;8.744;2023-05-07T00:48:07;13.80;99.90
10980;DHT22;5543;51.734;8.744;2023-05-07T00:50:35;13.80;99.90
10980;DHT22;5543;51.734;8.744;2023-05-07T00:53:04;13.80;99.90
10980;DHT22;5543;51.734;8.744;2023-05-07T00:55:32;13.80;99.90
10980;DHT22;5543;51.734;8.744;2023-05-07T00:58:00;13.80;99.90
10980;DHT22;5543;51.734;8.744;2023-05-07T01:00:28;13.80;99.90
10980;DHT22;5543;51.734;8.744;2023-05-07T01:02:57;13.80;99.90
10980;DHT22;5543;51.734;8.744;2023-05-07T01:05:28;13.80;99.90
10980;DHT22;5543;51.734;8.744;2023-05-07T01:07:58;13.70;99.90
10980;DHT22;5543;51.734;8.744;2023-05-07T01:10:26;13.70;99.90
10980;DHT22;5543;51.734;8.744;2023-05-07T01:12:58;13.70;99.90
10980;DHT22;5543;51.734;8.744;2023-05-07T01:15:27;13.70;99.90
10980;DHT22;5543;51.734;8.744;2023-05-07T01:17:55;13.70;99.90
10980;DHT22;5543;51.734;8.744;2023-05-07T01:20:24;13.70;99.90
10980;DHT22;5543;51.734;8.744;2023-05-07T01:22:54;13.60;99.90
10980;DHT22;5543;51.734;8.744;2023-05-07T01:25:24;13.60;99.90
10980;DHT22;5543;51.734;8.744;2023-05-07T01:27:52;13.60;99.90
10980;DHT22;5543;51.734;8.744;2023-05-07T01:30:22;13.60;99.90
10980;DHT22;5543;51.734;8.744;2023-05-07T01:32:53;13.60;99.90
10980;DHT22;5543;51.734;8.744;2023-05-07T01:35:27;13.50;99.90
10980;DHT22;5543;51.734;8.744;2023-05-07T01:37:58;13.50;99.90
10980;DHT22;5543;51.734;8.744;2023-05-07T01:40:27;13.50;99.90
10980;DHT22;5543;51.734;8.744;2023-05-07T01:42:55;13.50;99.90
10980;DHT22;5543;51.734;8.744;2023-05-07T01:45:24;13.50;99.90
10980;DHT22;5543;51.734;8.744;2023-05-07T01:47:53;13.50;99.90
10980;DHT22;5543;51.734;8.744;2023-05-07T01:50:23;13.50;99.90
10980;DHT22;5543;51.734;8.744;2023-05-07T01:52:51;13.50;99.90
10980;DHT22;5543;51.734;8.744;2023-05-07T01:55:21;13.50;99.90
10980;DHT22;5543;51.734;8.744;2023-05-07T01:57:49;13.40;99.90
10980;DHT22;5543;51.734;8.744;2023-05-07T02:00:18;13.40;99.90
10980;DHT22;5543;51.734;8.744;2023-05-07T02:02:46;13.40;99.90
10980;DHT22;5543;51.734;8.744;2023-05-07T02:05:14;13.40;99.90
10980;DHT22;5543;51.734;8.744;2023-05-07T02:07:43;13.40;99.90
10980;DHT22;5543;51.734;8.744;2023-05-07T02:10:11;13.30;99.90
10980;DHT22;5543;51.734;8.744;2023-05-07T02:12:40;13.30;99.90
10980;DHT22;5543;51.734;8.744;2023-05-07T02:15:10;13.30;99.90
10980;DHT22;5543;51.734;8.744;2023-05-07T02:17:58;13.30;99.90
10980;DHT22;5543;51.734;8.744;2023-05-07T02:20:26;13.20;99.90
10980;DHT22;5543;51.734;8.744;2023-05-07T02:22:55;13.20;99.90
10980;DHT22;5543;51.734;8.744;2023-05-07T02:25:23;13.20;99.90
10980;DHT22;5543;51.734;8.744;2023-05-07T02:27:52;13.10;99.90
10980;DHT22;5543;51.734;8.744;2023-05-07T02:30:21;13.10;99.90
10980;DHT22;5543;51.734;8.744;2023-05-07T02:32:49;12.80;99.90
10980;DHT22;5543;51.734;8.744;2023-05-07T02:35:17;13.10;99.90
10980;DHT22;5543;51.734;8.744;2023-05-07T02:37:45;13.10;99.90
10980;DHT22;5543;51.734;8.744;2023-05-07T02:40:13;13.00;99.90
10980;DHT22;5543;51.734;8.744;2023-05-07T02:42:41;13.00;99.90
10980;DHT22;5543;51.734;8.744;2023-05-07T02:45:11;13.00;99.90
10980;DHT22;5543;51.734;8.744;2023-05-07T02:47:39;13.00;99.90
10980;DHT22;5543;51.734;8.744;2023-05-07T02:50:07;13.00;99.90
10980;DHT22;5543;51.734;8.744;2023-05-07T02:52:36;12.90;99.90
10980;DHT22;5543;51.734;8.744;2023-05-07T02:55:05;12.90;99.90
10980;DHT22;5543;51.734;8.744;2023-05-07T02:57:33;12.90;99.90
10980;DHT22;5543;51.734;8.744;2023-05-07T03:00:12;12.80;99.90
10980;DHT22;5543;51.734;8.744;2023-05-07T03:02:40;12.80;99.90
10980;DHT22;5543;51.734;8.744;2023-05-07T03:05:09;12.80;99.90
10980;DHT22;5543;51.734;8.744;2023-05-07T03:07:37;12.80;99.90
10980;DHT22;5543;51.734;8.744;2023-05-07T03:10:06;12.80;99.90
10980;DHT22;5543;51.734;8.744;2023-05-07T03:12:35;12.80;99.90
10980;DHT22;5543;51.734;8.744;2023-05-07T03:15:03;12.70;99.90
10980;DHT22;5543;51.734;8.744;2023-05-07T03:17:33;12.70;99.90
10980;DHT22;5543;51.734;8.744;2023-05-07T03:20:02;12.80;99.90
10980;DHT22;5543;51.734;8.744;2023-05-07T03:22:30;12.80;99.90
10980;DHT22;5543;51.734;8.744;2023-05-07T03:24:59;12.70;99.90
10980;DHT22;5543;51.734;8.744;2023-05-07T03:27:27;12.70;99.90
10980;DHT22;5543;51.734;8.744;2023-05-07T03:29:55;12.70;99.90
10980;DHT22;5543;51.734;8.744;2023-05-07T03:32:23;12.60;99.90
10980;DHT22;5543;51.734;8.744;2023-05-07T03:34:53;12.60;99.90
10980;DHT22;5543;51.734;8.744;2023-05-07T03:37:21;12.60;99.90
10980;DHT22;5543;51.734;8.744;2023-05-07T03:39:49;12.60;99.90
10980;DHT22;5543;51.734;8.744;2023-05-07T03:42:17;12.60;99.90
10980;DHT22;5543;51.734;8.744;2023-05-07T03:44:45;12.50;99.90
10980;DHT22;5543;51.734;8.744;2023-05-07T03:47:13;12.50;99.90
10980;DHT22;5543;51.734;8.744;2023-05-07T03:49:41;12.50;99.90
10980;DHT22;5543;51.734;8.744;2023-05-07T03:52:11;12.50;99.90
10980;DHT22;5543;51.734;8.744;2023-05-07T03:54:39;12.50;99.90
10980;DHT22;5543;51.734;8.744;2023-05-07T03:57:07;12.50;99.90
10980;DHT22;5543;51.734;8.744;2023-05-07T03:59:36;12.50;99.90
10980;DHT22;5543;51.734;8.744;2023-05-07T04:02:04;12.50;99.90
10980;DHT22;5543;51.734;8.744;2023-05-07T04:04:32;12.50;99.90
10980;DHT22;5543;51.734;8.744;2023-05-07T04:07:00;12.50;99.90
10980;DHT22;5543;51.734;8.744;2023-05-07T04:09:29;12.50;99.90
10980;DHT22;5543;51.734;8.744;2023-05-07T04:11:57;12.50;99.90
10980;DHT22;5543;51.734;8.744;2023-05-07T04:14:25;12.60;99.90
10980;DHT22;5543;51.734;8.744;2023-05-07T04:16:53;12.50;99.90
10980;DHT22;5543;51.734;8.744;2023-05-07T04:19:22;12.50;99.90
10980;DHT22;5543;51.734;8.744;2023-05-07T04:21:50;12.60;99.90
10980;DHT22;5543;51.734;8.744;2023-05-07T04:24:18;12.60;99.90
10980;DHT22;5543;51.734;8.744;2023-05-07T04:26:48;12.60;99.90
10980;DHT22;5543;51.734;8.744;2023-05-07T04:29:17;12.60;99.90
10980;DHT22;5543;51.734;8.744;2023-05-07T04:31:47;12.60;99.90
10980;DHT22;5543;51.734;8.744;2023-05-07T04:34:15;12.60;99.90
10980;DHT22;5543;51.734;8.744;2023-05-07T04:36:43;12.60;99.90
10980;DHT22;5543;51.734;8.744;2023-05-07T04:39:12;12.60;99.90
10980;DHT22;5543;51.734;8.744;2023-05-07T04:41:41;12.60;99.90
10980;DHT22;5543;51.734;8.744;2023-05-07T04:44:11;12.60;99.90
10980;DHT22;5543;51.734;8.744;2023-05-07T04:46:39;12.60;99.90
10980;DHT22;5543;51.734;8.744;2023-05-07T04:49:07;12.60;99.90
10980;DHT22;5543;51.734;8.744;2023-05-07T04:51:35;12.60;99.90
10980;DHT22;5543;51.734;8.744;2023-05-07T04:54:03;12.60;99.90
10980;DHT22;5543;51.734;8.744;2023-05-07T04:56:31;12.70;99.90
10980;DHT22;5543;51.734;8.744;2023-05-07T04:58:59;12.70;99.90
10980;DHT22;5543;51.734;8.744;2023-05-07T05:01:28;12.70;99.90
10980;DHT22;5543;51.734;8.744;2023-05-07T05:03:57;12.60;99.90
10980;DHT22;5543;51.734;8.744;2023-05-07T05:06:27;12.70;99.90
10980;DHT22;5543;51.734;8.744;2023-05-07T05:08:55;12.70;99.90
10980;DHT22;5543;51.734;8.744;2023-05-07T05:11:23;12.70;99.90
10980;DHT22;5543;51.734;8.744;2023-05-07T05:13:51;12.80;99.90
10980;DHT22;5543;51.734;8.744;2023-05-07T05:16:19;12.80;99.90
10980;DHT22;5543;51.734;8.744;2023-05-07T05:18:49;12.80;99.90
10980;DHT22;5543;51.734;8.744;2023-05-07T05:21:18;12.80;99.90
10980;DHT22;5543;51.734;8.744;2023-05-07T05:23:46;12.80;99.90
10980;DHT22;5543;51.734;8.744;2023-05-07T05:26:14;12.90;99.90
10980;DHT22;5543;51.734;8.744;2023-05-07T05:28:42;12.90;99.90
10980;DHT22;5543;51.734;8.744;2023-05-07T05:31:11;12.90;99.90
10980;DHT22;5543;51.734;8.744;2023-05-07T05:33:40;13.00;99.90
10980;DHT22;5543;51.734;8.744;2023-05-07T05:36:10;13.00;99.90
10980;DHT22;5543;51.734;8.744;2023-05-07T05:38:40;13.10;99.90
10980;DHT22;5543;51.734;8.744;2023-05-07T05:41:08;13.10;99.90
10980;DHT22;5543;51.734;8.744;2023-05-07T05:43:36;13.10;99.90
10980;DHT22;5543;51.734;8.744;2023-05-07T05:46:04;13.20;99.90
10980;DHT22;5543;51.734;8.744;2023-05-07T05:48:33;13.20;99.90
10980;DHT22;5543;51.734;8.744;2023-05-07T05:51:01;13.20;99.90
10980;DHT22;5543;51.734;8.744;2023-05-07T05:53:30;13.20;99.90
10980;DHT22;5543;51.734;8.744;2023-05-07T05:55:59;13.10;99.90
10980;DHT22;5543;51.734;8.744;2023-05-07T05:58:27;13.20;99.90
10980;DHT22;5543;51.734;8.744;2023-05-07T06:00:55;13.20;99.90
10980;DHT22;5543;51.734;8.744;2023-05-07T06:03:23;13.20;99.90
10980;DHT22;5543;51.734;8.744;2023-05-07T06:05:51;13.20;99.90
10980;DHT22;5543;51.734;8.744;2023-05-07T06:08:20;13.20;99.90
10980;DHT22;5543;51.734;8.744;2023-05-07T06:10:49;13.30;99.90
10980;DHT22;5543;51.734;8.744;2023-05-07T06:13:17;13.40;99.90
10980;DHT22;5543;51.734;8.744;2023-05-07T06:15:45;13.40;99.90
10980;DHT22;5543;51.734;8.744;2023-05-07T06:18:13;13.50;99.90
10980;DHT22;5543;51.734;8.744;2023-05-07T06:20:41;13.40;99.90
10980;DHT22;5543;51.734;8.744;2023-05-07T06:23:09;13.40;99.90
10980;DHT22;5543;51.734;8.744;2023-05-07T06:25:37;13.40;99.90
10980;DHT22;5543;51.734;8.744;2023-05-07T06:28:07;13.40;99.90
10980;DHT22;5543;51.734;8.744;2023-05-07T06:30:38;13.50;99.90
10980;DHT22;5543;51.734;8.744;2023-05-07T06:33:07;13.60;99.90
10980;DHT22;5543;51.734;8.744;2023-05-07T06:35:35;13.50;99.90
10980;DHT22;5543;51.734;8.744;2023-05-07T06:38:03;13.60;99.90
10980;DHT22;5543;51.734;8.744;2023-05-07T06:40:31;13.60;99.90
10980;DHT22;5543;51.734;8.744;2023-05-07T06:42:59;13.60;99.90
10980;DHT22;5543;51.734;8.744;2023-05-07T06:45:29;13.70;99.90
10980;DHT22;5543;51.734;8.744;2023-05-07T06:47:57;13.70;99.90
10980;DHT22;5543;51.734;8.744;2023-05-07T06:50:25;13.60;99.90
10980;DHT22;5543;51.734;8.744;2023-05-07T06:52:53;13.60;99.90
10980;DHT22;5543;51.734;8.744;2023-05-07T06:55:21;13.60;99.90
10980;DHT22;5543;51.734;8.744;2023-05-07T06:57:49;13.70;99.90
10980;DHT22;5543;51.734;8.744;2023-05-07T07:00:18;13.60;99.90
10980;DHT22;5543;51.734;8.744;2023-05-07T07:02:48;13.70;99.90
10980;DHT22;5543;51.734;8.744;2023-05-07T07:05:16;13.70;99.90
10980;DHT22;5543;51.734;8.744;2023-05-07T07:07:44;13.70;99.90
10980;DHT22;5543;51.734;8.744;2023-05-07T07:10:19;13.70;99.90
10980;DHT22;5543;51.734;8.744;2023-05-07T07:12:48;13.70;99.90
10980;DHT22;5543;51.734;8.744;2023-05-07T07:15:16;13.70;99.90
10980;DHT22;5543;51.734;8.744;2023-05-07T07:17:45;13.80;99.90
10980;DHT22;5543;51.734;8.744;2023-05-07T07:20:14;13.90;99.90
10980;DHT22;5543;51.734;8.744;2023-05-07T07:22:43;14.00;99.90
10980;DHT22;5543;51.734;8.744;2023-05-07T07:25:11;14.10;99.90
10980;DHT22;5543;51.734;8.744;2023-05-07T07:27:39;14.10;99.90
10980;DHT22;5543;51.734;8.744;2023-05-07T07:30:08;14.30;99.90
10980;DHT22;5543;51.734;8.744;2023-05-07T07:32:37;14.40;99.90
10980;DHT22;5543;51.734;8.744;2023-05-07T07:35:06;14.50;99.90
10980;DHT22;5543;51.734;8.744;2023-05-07T07:37:36;14.50;99.90
10980;DHT22;5543;51.734;8.744;2023-05-07T07:40:05;14.70;99.90
10980;DHT22;5543;51.734;8.744;2023-05-07T07:42:33;14.70;99.90
10980;DHT22;5543;51.734;8.744;2023-05-07T07:45:01;14.70;99.90
10980;DHT22;5543;51.734;8.744;2023-05-07T07:47:30;14.60;99.90
10980;DHT22;5543;51.734;8.744;2023-05-07T07:49:58;14.60;99.90
10980;DHT22;5543;51.734;8.744;2023-05-07T07:52:26;14.50;99.90
10980;DHT22;5543;51.734;8.744;2023-05-07T07:54:56;14.50;99.90
10980;DHT22;5543;51.734;8.744;2023-05-07T07:59:52;14.50;99.90
10980;DHT22;5543;51.734;8.744;2023-05-07T08:02:20;14.50;99.90
10980;DHT22;5543;51.734;8.744;2023-05-07T08:04:49;14.60;99.90
10980;DHT22;5543;51.734;8.744;2023-05-07T08:07:17;14.60;99.90
10980;DHT22;5543;51.734;8.744;2023-05-07T08:09:47;14.80;99.90
10980;DHT22;5543;51.734;8.744;2023-05-07T08:12:17;14.80;99.90
10980;DHT22;5543;51.734;8.744;2023-05-07T08:14:45;14.80;99.90
10980;DHT22;5543;51.734;8.744;2023-05-07T08:17:13;14.90;99.90
10980;DHT22;5543;51.734;8.744;2023-05-07T08:19:43;15.00;99.90
10980;DHT22;5543;51.734;8.744;2023-05-07T08:22:11;15.00;99.90
10980;DHT22;5543;51.734;8.744;2023-05-07T08:24:39;15.00;99.90
10980;DHT22;5543;51.734;8.744;2023-05-07T08:27:07;15.10;99.90
10980;DHT22;5543;51.734;8.744;2023-05-07T08:29:37;15.10;99.90
10980;DHT22;5543;51.734;8.744;2023-05-07T08:32:05;15.30;99.90
10980;DHT22;5543;51.734;8.744;2023-05-07T08:34:33;15.40;99.90
10980;DHT22;5543;51.734;8.744;2023-05-07T08:37:02;15.50;99.90
10980;DHT22;5543;51.734;8.744;2023-05-07T08:39:30;15.60;99.90
10980;DHT22;5543;51.734;8.744;2023-05-07T08:42:00;15.80;99.90
10980;DHT22;5543;51.734;8.744;2023-05-07T08:44:33;15.90;99.90
10980;DHT22;5543;51.734;8.744;2023-05-07T08:47:03;16.10;99.90
10980;DHT22;5543;51.734;8.744;2023-05-07T08:49:34;16.20;99.90
10980;DHT22;5543;51.734;8.744;2023-05-07T08:52:02;16.30;99.90
10980;DHT22;5543;51.734;8.744;2023-05-07T08:54:33;16.50;99.90
10980;DHT22;5543;51.734;8.744;2023-05-07T08:57:04;16.60;99.90
10980;DHT22;5543;51.734;8.744;2023-05-07T08:59:32;17.00;99.90
10980;DHT22;5543;51.734;8.744;2023-05-07T09:02:00;17.40;99.90
10980;DHT22;5543;51.734;8.744;2023-05-07T09:04:30;18.00;99.90
10980;DHT22;5543;51.734;8.744;2023-05-07T09:06:59;18.30;99.90
10980;DHT22;5543;51.734;8.744;2023-05-07T09:09:32;18.50;99.90
10980;DHT22;5543;51.734;8.744;2023-05-07T09:12:00;18.90;99.90
10980;DHT22;5543;51.734;8.744;2023-05-07T09:14:30;19.10;99.90
10980;DHT22;5543;51.734;8.744;2023-05-07T09:16:58;18.90;99.90
10980;DHT22;5543;51.734;8.744;2023-05-07T09:19:27;19.10;99.90
10980;DHT22;5543;51.734;8.744;2023-05-07T09:22:00;19.40;99.90
10980;DHT22;5543;51.734;8.744;2023-05-07T09:24:29;19.70;99.90
10980;DHT22;5543;51.734;8.744;2023-05-07T09:27:01;20.10;99.60
10980;DHT22;5543;51.734;8.744;2023-05-07T09:29:30;20.40;99.80
10980;DHT22;5543;51.734;8.744;2023-05-07T09:32:02;20.60;98.80
10980;DHT22;5543;51.734;8.744;2023-05-07T09:34:31;20.70;98.30
10980;DHT22;5543;51.734;8.744;2023-05-07T09:37:01;20.90;98.00
10980;DHT22;5543;51.734;8.744;2023-05-07T09:39:39;20.70;97.70
10980;DHT22;5543;51.734;8.744;2023-05-07T09:42:07;20.50;98.00
10980;DHT22;5543;51.734;8.744;2023-05-07T09:44:36;20.50;98.30
10980;DHT22;5543;51.734;8.744;2023-05-07T09:47:05;20.50;98.20
10980;DHT22;5543;51.734;8.744;2023-05-07T09:49:35;20.20;98.80
10980;DHT22;5543;51.734;8.744;2023-05-07T09:52:06;20.30;98.10
10980;DHT22;5543;51.734;8.744;2023-05-07T09:54:36;20.20;98.60
10980;DHT22;5543;51.734;8.744;2023-05-07T09:57:05;20.30;99.30
10980;DHT22;5543;51.734;8.744;2023-05-07T09:59:36;20.40;97.70
10980;DHT22;5543;51.734;8.744;2023-05-07T10:02:05;20.40;98.80
10980;DHT22;5543;51.734;8.744;2023-05-07T10:04:34;20.30;98.30
10980;DHT22;5543;51.734;8.744;2023-05-07T10:07:04;20.30;98.60
10980;DHT22;5543;51.734;8.744;2023-05-07T10:09:33;20.40;98.60
10980;DHT22;5543;51.734;8.744;2023-05-07T10:12:06;21.00;98.60
10980;DHT22;5543;51.734;8.744;2023-05-07T10:14:34;21.10;96.80
10980;DHT22;5543;51.734;8.744;2023-05-07T10:17:02;21.20;97.10
10980;DHT22;5543;51.734;8.744;2023-05-07T10:19:32;21.20;97.40
10980;DHT22;5543;51.734;8.744;2023-05-07T10:22:04;21.10;96.50
10980;DHT22;5543;51.734;8.744;2023-05-07T10:24:34;20.90;97.30
10980;DHT22;5543;51.734;8.744;2023-05-07T10:27:05;20.50;97.60
10980;DHT22;5543;51.734;8.744;2023-05-07T10:29:42;20.30;98.20
10980;DHT22;5543;51.734;8.744;2023-05-07T10:32:33;19.90;97.80
10980;DHT22;5543;51.734;8.744;2023-05-07T10:35:09;19.60;97.70
10980;DHT22;5543;51.734;8.744;2023-05-07T10:37:40;19.60;98.90
10980;DHT22;5543;51.734;8.744;2023-05-07T10:40:10;20.20;99.50
10980;DHT22;5543;51.734;8.744;2023-05-07T10:42:53;21.00;97.80
10980;DHT22;5543;51.734;8.744;2023-05-07T10:45:28;21.50;97.20
10980;DHT22;5543;51.734;8.744;2023-05-07T10:48:10;22.00;97.50
10980;DHT22;5543;51.734;8.744;2023-05-07T10:51:20;22.30;95.60
10980;DHT22;5543;51.734;8.744;2023-05-07T10:54:21;23.80;96.30
10980;DHT22;5543;51.734;8.744;2023-05-07T10:56:50;22.90;95.30
10980;DHT22;5543;51.734;8.744;2023-05-07T10:59:35;22.30;95.20
10980;DHT22;5543;51.734;8.744;2023-05-07T11:02:10;21.70;96.00
10980;DHT22;5543;51.734;8.744;2023-05-07T11:04:43;21.40;96.10
10980;DHT22;5543;51.734;8.744;2023-05-07T11:07:24;21.30;96.20
10980;DHT22;5543;51.734;8.744;2023-05-07T11:10:04;21.40;96.50
10980;DHT22;5543;51.734;8.744;2023-05-07T11:12:53;21.60;96.10
10980;DHT22;5543;51.734;8.744;2023-05-07T11:15:41;21.90;95.70
10980;DHT22;5543;51.734;8.744;2023-05-07T11:18:12;22.60;96.10
10980;DHT22;5543;51.734;8.744;2023-05-07T11:20:49;23.70;95.30
10980;DHT22;5543;51.734;8.744;2023-05-07T11:23:55;24.20;95.20
10980;DHT22;5543;51.734;8.744;2023-05-07T11:26:25;25.10;94.40
10980;DHT22;5543;51.734;8.744;2023-05-07T11:28:54;25.50;92.40
10980;DHT22;5543;51.734;8.744;2023-05-07T11:31:25;26.10;91.20
10980;DHT22;5543;51.734;8.744;2023-05-07T11:33:55;26.10;91.40
10980;DHT22;5543;51.734;8.744;2023-05-07T11:36:24;26.50;90.80
10980;DHT22;5543;51.734;8.744;2023-05-07T11:38:52;26.90;90.40
10980;DHT22;5543;51.734;8.744;2023-05-07T11:41:21;27.20;89.00
10980;DHT22;5543;51.734;8.744;2023-05-07T11:44:00;27.40;87.20
10980;DHT22;5543;51.734;8.744;2023-05-07T11:46:28;27.70;88.90
10980;DHT22;5543;51.734;8.744;2023-05-07T11:48:57;27.60;87.30
10980;DHT22;5543;51.734;8.744;2023-05-07T11:51:25;27.70;87.40
10980;DHT22;5543;51.734;8.744;2023-05-07T11:53:56;27.60;84.80
10980;DHT22;5543;51.734;8.744;2023-05-07T11:56:24;27.20;88.30
10980;DHT22;5543;51.734;8.744;2023-05-07T11:58:52;26.80;84.70
10980;DHT22;5543;51.734;8.744;2023-05-07T12:01:22;26.60;87.20
10980;DHT22;5543;51.734;8.744;2023-05-07T12:03:50;26.40;86.00
10980;DHT22;5543;51.734;8.744;2023-05-07T12:06:19;26.50;86.90
10980;DHT22;5543;51.734;8.744;2023-05-07T12:08:47;26.30;88.60
10980;DHT22;5543;51.734;8.744;2023-05-07T12:11:21;26.10;87.20
10980;DHT22;5543;51.734;8.744;2023-05-07T12:13:50;25.70;88.10
10980;DHT22;5543;51.734;8.744;2023-05-07T12:16:19;25.50;90.60
10980;DHT22;5543;51.734;8.744;2023-05-07T12:18:49;25.40;88.40
10980;DHT22;5543;51.734;8.744;2023-05-07T12:21:19;24.80;89.80
10980;DHT22;5543;51.734;8.744;2023-05-07T12:23:48;24.20;90.40
10980;DHT22;5543;51.734;8.744;2023-05-07T12:26:16;23.60;90.30
10980;DHT22;5543;51.734;8.744;2023-05-07T12:28:44;23.60;91.30
10980;DHT22;5543;51.734;8.744;2023-05-07T12:31:14;23.80;91.20
10980;DHT22;5543;51.734;8.744;2023-05-07T12:33:43;24.00;91.30
10980;DHT22;5543;51.734;8.744;2023-05-07T12:36:13;24.10;91.60
10980;DHT22;5543;51.734;8.744;2023-05-07T12:38:42;24.10;92.00
10980;DHT22;5543;51.734;8.744;2023-05-07T12:41:10;24.20;90.70
10980;DHT22;5543;51.734;8.744;2023-05-07T12:43:39;24.20;90.70
10980;DHT22;5543;51.734;8.744;2023-05-07T12:46:07;24.60;91.30
10980;DHT22;5543;51.734;8.744;2023-05-07T12:48:37;25.70;90.50
10980;DHT22;5543;51.734;8.744;2023-05-07T12:51:05;26.50;87.20
10980;DHT22;5543;51.734;8.744;2023-05-07T12:53:40;26.90;85.30
10980;DHT22;5543;51.734;8.744;2023-05-07T12:56:09;27.20;85.90
10980;DHT22;5543;51.734;8.744;2023-05-07T12:58:37;27.30;84.70
10980;DHT22;5543;51.734;8.744;2023-05-07T13:01:07;27.90;86.00
10980;DHT22;5543;51.734;8.744;2023-05-07T13:03:37;28.40;80.90
10980;DHT22;5543;51.734;8.744;2023-05-07T13:06:07;28.50;82.70
10980;DHT22;5543;51.734;8.744;2023-05-07T13:08:39;29.00;82.00
10980;DHT22;5543;51.734;8.744;2023-05-07T13:11:10;29.20;77.90
10980;DHT22;5543;51.734;8.744;2023-05-07T13:13:40;29.40;78.90
10980;DHT22;5543;51.734;8.744;2023-05-07T13:16:09;29.40;78.70
10980;DHT22;5543;51.734;8.744;2023-05-07T13:18:38;29.30;77.50
10980;DHT22;5543;51.734;8.744;2023-05-07T13:21:07;29.30;78.60
10980;DHT22;5543;51.734;8.744;2023-05-07T13:23:38;29.20;77.70
10980;DHT22;5543;51.734;8.744;2023-05-07T13:26:06;28.40;76.60
10980;DHT22;5543;51.734;8.744;2023-05-07T13:28:51;27.60;78.20
10980;DHT22;5543;51.734;8.744;2023-05-07T13:31:20;27.40;79.10
10980;DHT22;5543;51.734;8.744;2023-05-07T13:33:48;27.20;81.30
10980;DHT22;5543;51.734;8.744;2023-05-07T13:36:16;27.20;80.70
10980;DHT22;5543;51.734;8.744;2023-05-07T13:38:46;27.10;80.30
10980;DHT22;5543;51.734;8.744;2023-05-07T13:41:14;27.40;81.50
10980;DHT22;5543;51.734;8.744;2023-05-07T13:43:42;27.10;81.10
10980;DHT22;5543;51.734;8.744;2023-05-07T13:46:10;26.70;80.30
10980;DHT22;5543;51.734;8.744;2023-05-07T13:48:39;26.20;81.60
10980;DHT22;5543;51.734;8.744;2023-05-07T13:51:07;26.20;82.60
10980;DHT22;5543;51.734;8.744;2023-05-07T13:53:35;26.20;81.40
10980;DHT22;5543;51.734;8.744;2023-05-07T13:56:05;26.20;81.00
10980;DHT22;5543;51.734;8.744;2023-05-07T13:58:33;25.60;81.20
10980;DHT22;5543;51.734;8.744;2023-05-07T14:01:14;25.00;82.40
10980;DHT22;5543;51.734;8.744;2023-05-07T14:03:42;24.70;84.20
10980;DHT22;5543;51.734;8.744;2023-05-07T14:06:10;24.10;87.50
10980;DHT22;5543;51.734;8.744;2023-05-07T14:08:38;24.00;88.90
10980;DHT22;5543;51.734;8.744;2023-05-07T14:11:08;23.40;86.20
10980;DHT22;5543;51.734;8.744;2023-05-07T14:13:38;22.90;88.40
10980;DHT22;5543;51.734;8.744;2023-05-07T14:16:06;22.50;89.80
10980;DHT22;5543;51.734;8.744;2023-05-07T14:18:35;22.10;89.70
10980;DHT22;5543;51.734;8.744;2023-05-07T14:21:04;22.00;90.30
10980;DHT22;5543;51.734;8.744;2023-05-07T14:23:33;22.00;90.70
10980;DHT22;5543;51.734;8.744;2023-05-07T14:26:01;22.00;90.90
10980;DHT22;5543;51.734;8.744;2023-05-07T14:28:30;22.00;90.20
10980;DHT22;5543;51.734;8.744;2023-05-07T14:30:58;22.10;91.20
10980;DHT22;5543;51.734;8.744;2023-05-07T14:33:27;21.80;91.20
10980;DHT22;5543;51.734;8.744;2023-05-07T14:35:55;21.60;91.00
10980;DHT22;5543;51.734;8.744;2023-05-07T14:38:23;21.80;91.50
10980;DHT22;5543;51.734;8.744;2023-05-07T14:40:51;21.80;91.10
10980;DHT22;5543;51.734;8.744;2023-05-07T14:43:22;21.60;91.40
10980;DHT22;5543;51.734;8.744;2023-05-07T14:45:52;21.50;91.20
10980;DHT22;5543;51.734;8.744;2023-05-07T14:48:28;21.30;90.90
10980;DHT22;5543;51.734;8.744;2023-05-07T14:50:56;21.20;91.90
10980;DHT22;5543;51.734;8.744;2023-05-07T14:53:24;21.00;92.60
10980;DHT22;5543;51.734;8.744;2023-05-07T14:55:52;21.00;91.80
10980;DHT22;5543;51.734;8.744;2023-05-07T14:58:20;21.00;92.70
10980;DHT22;5543;51.734;8.744;2023-05-07T15:00:48;21.00;92.60
10980;DHT22;5543;51.734;8.744;2023-05-07T15:03:18;21.00;92.00
10980;DHT22;5543;51.734;8.744;2023-05-07T15:05:46;20.90;91.60
10980;DHT22;5543;51.734;8.744;2023-05-07T15:08:14;20.70;92.10
10980;DHT22;5543;51.734;8.744;2023-05-07T15:10:43;20.60;92.30
10980;DHT22;5543;51.734;8.744;2023-05-07T15:13:12;20.40;92.80
10980;DHT22;5543;51.734;8.744;2023-05-07T15:15:42;20.40;93.80
10980;DHT22;5543;51.734;8.744;2023-05-07T15:18:11;20.30;92.60
10980;DHT22;5543;51.734;8.744;2023-05-07T15:20:41;20.20;93.20
10980;DHT22;5543;51.734;8.744;2023-05-07T15:23:09;20.10;92.90
10980;DHT22;5543;51.734;8.744;2023-05-07T15:25:39;20.00;93.00
10980;DHT22;5543;51.734;8.744;2023-05-07T15:28:07;19.80;93.60
10980;DHT22;5543;51.734;8.744;2023-05-07T15:30:35;19.70;93.90
10980;DHT22;5543;51.734;8.744;2023-05-07T15:33:03;19.60;94.30
10980;DHT22;5543;51.734;8.744;2023-05-07T15:35:32;19.50;93.40
10980;DHT22;5543;51.734;8.744;2023-05-07T15:38:02;19.40;94.30
10980;DHT22;5543;51.734;8.744;2023-05-07T15:40:30;19.30;94.10
10980;DHT22;5543;51.734;8.744;2023-05-07T15:42:59;19.20;94.00
10980;DHT22;5543;51.734;8.744;2023-05-07T15:45:28;19.10;93.80
10980;DHT22;5543;51.734;8.744;2023-05-07T15:47:57;19.00;93.50
10980;DHT22;5543;51.734;8.744;2023-05-07T15:50:25;19.00;93.90
10980;DHT22;5543;51.734;8.744;2023-05-07T15:52:53;18.90;94.20
10980;DHT22;5543;51.734;8.744;2023-05-07T15:55:23;18.90;94.20
10980;DHT22;5543;51.734;8.744;2023-05-07T15:57:52;18.80;94.00
10980;DHT22;5543;51.734;8.744;2023-05-07T16:00:21;18.70;94.20
10980;DHT22;5543;51.734;8.744;2023-05-07T16:02:50;18.70;94.20